sensor_id;sensor_type;location;lat;lon;timestamp;P1;durP1;ratioP1;P2;durP2;ratioP2
15665;SDS011;20725;51.196;3.510;2022-10-31T00:01:27;8.00;;;7.20;;
15665;SDS011;20725;51.196;3.510;2022-10-31T00:03:56;8.03;;;7.30;;
15665;SDS011;20725;51.196;3.510;2022-10-31T00:06:26;12.40;;;8.27;;
15665;SDS011;20725;51.196;3.510;2022-10-31T00:08:57;9.67;;;7.30;;
15665;SDS011;20725;51.196;3.510;2022-10-31T00:11:26;9.13;;;7.47;;
15665;SDS011;20725;51.196;3.510;2022-10-31T00:13:59;8.67;;;7.80;;
15665;SDS011;20725;51.196;3.510;2022-10-31T00:16:29;8.57;;;7.07;;
15665;SDS011;20725;51.196;3.510;2022-10-31T00:18:57;7.93;;;7.13;;
15665;SDS011;20725;51.196;3.510;2022-10-31T00:21:31;11.90;;;8.17;;
15665;SDS011;20725;51.196;3.510;2022-10-31T00:24:03;9.57;;;7.47;;
15665;SDS011;20725;51.196;3.510;2022-10-31T00:26:31;8.50;;;7.67;;
15665;SDS011;20725;51.196;3.510;2022-10-31T00:29:04;11.90;;;7.90;;
15665;SDS011;20725;51.196;3.510;2022-10-31T00:31:32;12.00;;;8.50;;
15665;SDS011;20725;51.196;3.510;2022-10-31T00:34:00;9.43;;;8.40;;
15665;SDS011;20725;51.196;3.510;2022-10-31T00:36:30;12.87;;;8.37;;
15665;SDS011;20725;51.196;3.510;2022-10-31T00:39:01;10.23;;;7.83;;
15665;SDS011;20725;51.196;3.510;2022-10-31T00:41:31;8.77;;;7.87;;
15665;SDS011;20725;51.196;3.510;2022-10-31T00:43:59;8.83;;;7.03;;
15665;SDS011;20725;51.196;3.510;2022-10-31T00:46:30;7.87;;;7.00;;
15665;SDS011;20725;51.196;3.510;2022-10-31T00:48:59;9.00;;;8.17;;
15665;SDS011;20725;51.196;3.510;2022-10-31T00:51:27;9.20;;;8.40;;
15665;SDS011;20725;51.196;3.510;2022-10-31T00:53:54;11.37;;;7.27;;
15665;SDS011;20725;51.196;3.510;2022-10-31T00:56:21;8.93;;;8.03;;
15665;SDS011;20725;51.196;3.510;2022-10-31T00:58:48;10.77;;;7.60;;
15665;SDS011;20725;51.196;3.510;2022-10-31T01:01:16;8.60;;;7.50;;
15665;SDS011;20725;51.196;3.510;2022-10-31T01:03:47;8.33;;;7.33;;
15665;SDS011;20725;51.196;3.510;2022-10-31T01:06:14;9.13;;;8.17;;
15665;SDS011;20725;51.196;3.510;2022-10-31T01:08:44;8.43;;;7.10;;
15665;SDS011;20725;51.196;3.510;2022-10-31T01:11:14;11.13;;;8.47;;
15665;SDS011;20725;51.196;3.510;2022-10-31T01:13:44;8.00;;;7.20;;
15665;SDS011;20725;51.196;3.510;2022-10-31T01:16:16;7.80;;;7.00;;
15665;SDS011;20725;51.196;3.510;2022-10-31T01:18:50;8.47;;;7.67;;
15665;SDS011;20725;51.196;3.510;2022-10-31T01:21:22;8.07;;;7.27;;
15665;SDS011;20725;51.196;3.510;2022-10-31T01:24:03;8.03;;;7.23;;
15665;SDS011;20725;51.196;3.510;2022-10-31T01:26:39;11.50;;;8.97;;
15665;SDS011;20725;51.196;3.510;2022-10-31T01:29:13;10.30;;;8.83;;
15665;SDS011;20725;51.196;3.510;2022-10-31T01:31:42;10.57;;;8.53;;
15665;SDS011;20725;51.196;3.510;2022-10-31T01:34:11;13.03;;;9.87;;
15665;SDS011;20725;51.196;3.510;2022-10-31T01:36:41;12.77;;;9.33;;
15665;SDS011;20725;51.196;3.510;2022-10-31T01:39:13;12.13;;;10.10;;
15665;SDS011;20725;51.196;3.510;2022-10-31T01:41:41;12.53;;;9.70;;
15665;SDS011;20725;51.196;3.510;2022-10-31T01:47:15;13.37;;;9.77;;
15665;SDS011;20725;51.196;3.510;2022-10-31T01:49:48;8.57;;;7.43;;
15665;SDS011;20725;51.196;3.510;2022-10-31T01:52:21;7.87;;;6.77;;
15665;SDS011;20725;51.196;3.510;2022-10-31T01:54:51;7.70;;;6.93;;
15665;SDS011;20725;51.196;3.510;2022-10-31T01:57:22;7.43;;;6.83;;
15665;SDS011;20725;51.196;3.510;2022-10-31T01:59:52;9.87;;;8.27;;
15665;SDS011;20725;51.196;3.510;2022-10-31T02:02:22;7.83;;;7.10;;
15665;SDS011;20725;51.196;3.510;2022-10-31T02:04:55;8.60;;;7.80;;
15665;SDS011;20725;51.196;3.510;2022-10-31T02:07:27;11.93;;;10.13;;
15665;SDS011;20725;51.196;3.510;2022-10-31T02:10:02;10.67;;;9.30;;
15665;SDS011;20725;51.196;3.510;2022-10-31T02:12:31;10.97;;;9.33;;
15665;SDS011;20725;51.196;3.510;2022-10-31T02:15:01;15.37;;;8.50;;
15665;SDS011;20725;51.196;3.510;2022-10-31T02:17:30;13.17;;;9.00;;
15665;SDS011;20725;51.196;3.510;2022-10-31T02:20:04;9.37;;;8.10;;
15665;SDS011;20725;51.196;3.510;2022-10-31T02:22:48;8.23;;;7.53;;
15665;SDS011;20725;51.196;3.510;2022-10-31T02:25:38;14.33;;;7.20;;
15665;SDS011;20725;51.196;3.510;2022-10-31T02:28:33;11.90;;;7.57;;
15665;SDS011;20725;51.196;3.510;2022-10-31T02:31:22;8.60;;;7.33;;
15665;SDS011;20725;51.196;3.510;2022-10-31T02:33:57;17.43;;;8.33;;
15665;SDS011;20725;51.196;3.510;2022-10-31T02:36:31;134.57;;;11.10;;
15665;SDS011;20725;51.196;3.510;2022-10-31T02:39:10;31.40;;;8.23;;
15665;SDS011;20725;51.196;3.510;2022-10-31T02:41:46;12.97;;;8.87;;
15665;SDS011;20725;51.196;3.510;2022-10-31T02:44:17;16.97;;;10.20;;
15665;SDS011;20725;51.196;3.510;2022-10-31T02:46:54;10.83;;;9.33;;
15665;SDS011;20725;51.196;3.510;2022-10-31T02:49:40;12.97;;;9.57;;
15665;SDS011;20725;51.196;3.510;2022-10-31T02:52:18;12.20;;;7.73;;
15665;SDS011;20725;51.196;3.510;2022-10-31T02:54:48;15.10;;;10.83;;
15665;SDS011;20725;51.196;3.510;2022-10-31T02:57:16;15.07;;;10.80;;
15665;SDS011;20725;51.196;3.510;2022-10-31T03:00:01;11.53;;;9.77;;
15665;SDS011;20725;51.196;3.510;2022-10-31T03:02:35;15.13;;;10.53;;
15665;SDS011;20725;51.196;3.510;2022-10-31T03:05:22;16.93;;;11.20;;
15665;SDS011;20725;51.196;3.510;2022-10-31T03:08:00;17.90;;;11.93;;
15665;SDS011;20725;51.196;3.510;2022-10-31T03:10:35;12.40;;;8.80;;
15665;SDS011;20725;51.196;3.510;2022-10-31T03:13:09;14.17;;;8.93;;
15665;SDS011;20725;51.196;3.510;2022-10-31T03:15:40;12.83;;;10.73;;
15665;SDS011;20725;51.196;3.510;2022-10-31T03:18:13;13.73;;;10.57;;
15665;SDS011;20725;51.196;3.510;2022-10-31T03:20:45;19.10;;;12.00;;
15665;SDS011;20725;51.196;3.510;2022-10-31T03:23:17;11.33;;;9.73;;
15665;SDS011;20725;51.196;3.510;2022-10-31T03:25:46;15.83;;;9.80;;
15665;SDS011;20725;51.196;3.510;2022-10-31T03:28:15;11.33;;;9.57;;
15665;SDS011;20725;51.196;3.510;2022-10-31T03:30:49;10.97;;;8.70;;
15665;SDS011;20725;51.196;3.510;2022-10-31T03:33:21;10.47;;;8.40;;
15665;SDS011;20725;51.196;3.510;2022-10-31T03:35:53;10.73;;;7.90;;
15665;SDS011;20725;51.196;3.510;2022-10-31T03:38:23;9.47;;;7.90;;
15665;SDS011;20725;51.196;3.510;2022-10-31T03:40:52;9.03;;;7.87;;
15665;SDS011;20725;51.196;3.510;2022-10-31T03:43:22;9.70;;;8.53;;
15665;SDS011;20725;51.196;3.510;2022-10-31T03:45:53;11.60;;;9.70;;
15665;SDS011;20725;51.196;3.510;2022-10-31T03:48:22;14.37;;;9.57;;
15665;SDS011;20725;51.196;3.510;2022-10-31T03:50:51;12.07;;;8.73;;
15665;SDS011;20725;51.196;3.510;2022-10-31T03:53:24;9.73;;;8.83;;
15665;SDS011;20725;51.196;3.510;2022-10-31T03:55:55;10.47;;;9.00;;
15665;SDS011;20725;51.196;3.510;2022-10-31T03:58:27;9.23;;;8.33;;
15665;SDS011;20725;51.196;3.510;2022-10-31T04:00:58;32.53;;;8.30;;
15665;SDS011;20725;51.196;3.510;2022-10-31T04:03:31;97.13;;;10.47;;
15665;SDS011;20725;51.196;3.510;2022-10-31T04:06:01;21.80;;;8.00;;
15665;SDS011;20725;51.196;3.510;2022-10-31T04:08:32;8.90;;;7.07;;
15665;SDS011;20725;51.196;3.510;2022-10-31T04:11:05;8.93;;;7.07;;
15665;SDS011;20725;51.196;3.510;2022-10-31T04:13:36;10.10;;;8.30;;
15665;SDS011;20725;51.196;3.510;2022-10-31T04:16:06;12.33;;;8.47;;
15665;SDS011;20725;51.196;3.510;2022-10-31T04:18:35;18.83;;;9.30;;
15665;SDS011;20725;51.196;3.510;2022-10-31T04:21:03;204.43;;;9.60;;
15665;SDS011;20725;51.196;3.510;2022-10-31T04:23:32;44.13;;;7.47;;
15665;SDS011;20725;51.196;3.510;2022-10-31T04:26:00;18.53;;;6.57;;
15665;SDS011;20725;51.196;3.510;2022-10-31T04:28:28;7.40;;;6.63;;
15665;SDS011;20725;51.196;3.510;2022-10-31T04:30:55;14.20;;;9.97;;
15665;SDS011;20725;51.196;3.510;2022-10-31T04:33:22;10.97;;;8.70;;
15665;SDS011;20725;51.196;3.510;2022-10-31T04:35:50;9.10;;;6.90;;
15665;SDS011;20725;51.196;3.510;2022-10-31T04:38:18;6.93;;;6.23;;
15665;SDS011;20725;51.196;3.510;2022-10-31T04:40:45;12.23;;;6.53;;
15665;SDS011;20725;51.196;3.510;2022-10-31T04:43:12;7.57;;;6.40;;
15665;SDS011;20725;51.196;3.510;2022-10-31T04:45:39;7.53;;;6.07;;
15665;SDS011;20725;51.196;3.510;2022-10-31T04:48:06;9.53;;;5.87;;
15665;SDS011;20725;51.196;3.510;2022-10-31T04:50:34;5.70;;;5.20;;
15665;SDS011;20725;51.196;3.510;2022-10-31T04:53:02;5.30;;;4.80;;
15665;SDS011;20725;51.196;3.510;2022-10-31T04:55:29;39.63;;;8.53;;
15665;SDS011;20725;51.196;3.510;2022-10-31T04:57:57;27.50;;;7.50;;
15665;SDS011;20725;51.196;3.510;2022-10-31T05:00:24;47.77;;;7.20;;
15665;SDS011;20725;51.196;3.510;2022-10-31T05:02:52;40.20;;;8.20;;
15665;SDS011;20725;51.196;3.510;2022-10-31T05:05:21;60.80;;;8.40;;
15665;SDS011;20725;51.196;3.510;2022-10-31T05:07:50;23.60;;;7.10;;
15665;SDS011;20725;51.196;3.510;2022-10-31T05:10:20;20.07;;;9.93;;
15665;SDS011;20725;51.196;3.510;2022-10-31T05:12:49;75.03;;;9.67;;
15665;SDS011;20725;51.196;3.510;2022-10-31T05:15:18;17.07;;;7.97;;
15665;SDS011;20725;51.196;3.510;2022-10-31T05:17:46;13.90;;;8.67;;
15665;SDS011;20725;51.196;3.510;2022-10-31T05:20:14;13.47;;;7.83;;
15665;SDS011;20725;51.196;3.510;2022-10-31T05:22:42;13.77;;;8.93;;
15665;SDS011;20725;51.196;3.510;2022-10-31T05:25:10;14.47;;;9.67;;
15665;SDS011;20725;51.196;3.510;2022-10-31T05:27:39;24.50;;;9.00;;
15665;SDS011;20725;51.196;3.510;2022-10-31T05:30:07;18.47;;;10.27;;
15665;SDS011;20725;51.196;3.510;2022-10-31T05:32:36;17.70;;;10.20;;
15665;SDS011;20725;51.196;3.510;2022-10-31T05:35:05;12.97;;;8.27;;
15665;SDS011;20725;51.196;3.510;2022-10-31T05:37:33;12.50;;;7.90;;
15665;SDS011;20725;51.196;3.510;2022-10-31T05:40:00;12.67;;;8.53;;
15665;SDS011;20725;51.196;3.510;2022-10-31T05:42:28;15.37;;;10.53;;
15665;SDS011;20725;51.196;3.510;2022-10-31T05:44:57;17.63;;;10.43;;
15665;SDS011;20725;51.196;3.510;2022-10-31T05:47:25;19.50;;;10.50;;
15665;SDS011;20725;51.196;3.510;2022-10-31T05:49:52;20.47;;;11.57;;
15665;SDS011;20725;51.196;3.510;2022-10-31T05:52:19;23.40;;;12.53;;
15665;SDS011;20725;51.196;3.510;2022-10-31T05:54:47;32.13;;;10.80;;
15665;SDS011;20725;51.196;3.510;2022-10-31T05:57:14;33.27;;;11.47;;
15665;SDS011;20725;51.196;3.510;2022-10-31T05:59:41;17.27;;;10.13;;
15665;SDS011;20725;51.196;3.510;2022-10-31T06:02:09;14.87;;;10.80;;
15665;SDS011;20725;51.196;3.510;2022-10-31T06:04:36;19.53;;;11.07;;
15665;SDS011;20725;51.196;3.510;2022-10-31T06:07:03;14.67;;;10.80;;
15665;SDS011;20725;51.196;3.510;2022-10-31T06:09:30;13.17;;;10.03;;
15665;SDS011;20725;51.196;3.510;2022-10-31T06:11:58;15.57;;;11.13;;
15665;SDS011;20725;51.196;3.510;2022-10-31T06:14:25;27.87;;;14.93;;
15665;SDS011;20725;51.196;3.510;2022-10-31T06:16:53;17.27;;;11.13;;
15665;SDS011;20725;51.196;3.510;2022-10-31T06:19:22;25.93;;;12.23;;
15665;SDS011;20725;51.196;3.510;2022-10-31T06:21:49;359.77;;;22.43;;
15665;SDS011;20725;51.196;3.510;2022-10-31T06:24:16;29.40;;;14.20;;
15665;SDS011;20725;51.196;3.510;2022-10-31T06:26:44;43.03;;;12.57;;
15665;SDS011;20725;51.196;3.510;2022-10-31T06:29:11;21.83;;;12.80;;
15665;SDS011;20725;51.196;3.510;2022-10-31T06:31:38;23.03;;;13.20;;
15665;SDS011;20725;51.196;3.510;2022-10-31T06:34:06;25.87;;;14.47;;
15665;SDS011;20725;51.196;3.510;2022-10-31T06:36:35;19.27;;;12.80;;
15665;SDS011;20725;51.196;3.510;2022-10-31T06:39:02;33.67;;;11.50;;
15665;SDS011;20725;51.196;3.510;2022-10-31T06:41:29;292.83;;;14.70;;
15665;SDS011;20725;51.196;3.510;2022-10-31T06:43:57;240.03;;;14.50;;
15665;SDS011;20725;51.196;3.510;2022-10-31T06:46:25;234.87;;;13.10;;
15665;SDS011;20725;51.196;3.510;2022-10-31T06:48:52;178.80;;;13.33;;
15665;SDS011;20725;51.196;3.510;2022-10-31T06:51:20;44.33;;;10.47;;
15665;SDS011;20725;51.196;3.510;2022-10-31T06:53:48;142.43;;;12.73;;
15665;SDS011;20725;51.196;3.510;2022-10-31T06:56:16;107.33;;;12.73;;
15665;SDS011;20725;51.196;3.510;2022-10-31T06:58:43;105.13;;;12.53;;
15665;SDS011;20725;51.196;3.510;2022-10-31T07:01:10;190.43;;;11.73;;
15665;SDS011;20725;51.196;3.510;2022-10-31T07:03:45;161.63;;;12.30;;
15665;SDS011;20725;51.196;3.510;2022-10-31T07:06:15;164.67;;;13.47;;
15665;SDS011;20725;51.196;3.510;2022-10-31T07:08:45;54.03;;;10.63;;
15665;SDS011;20725;51.196;3.510;2022-10-31T07:11:14;24.87;;;9.80;;
15665;SDS011;20725;51.196;3.510;2022-10-31T07:13:41;13.17;;;8.40;;
15665;SDS011;20725;51.196;3.510;2022-10-31T07:16:08;8.77;;;7.97;;
15665;SDS011;20725;51.196;3.510;2022-10-31T07:18:37;8.67;;;7.60;;
15665;SDS011;20725;51.196;3.510;2022-10-31T07:21:05;11.27;;;8.70;;
15665;SDS011;20725;51.196;3.510;2022-10-31T07:23:33;8.57;;;7.03;;
15665;SDS011;20725;51.196;3.510;2022-10-31T07:26:01;8.90;;;8.00;;
15665;SDS011;20725;51.196;3.510;2022-10-31T07:28:30;10.00;;;8.60;;
15665;SDS011;20725;51.196;3.510;2022-10-31T07:31:05;12.10;;;8.97;;
15665;SDS011;20725;51.196;3.510;2022-10-31T07:33:35;21.53;;;10.43;;
15665;SDS011;20725;51.196;3.510;2022-10-31T07:36:03;13.90;;;11.70;;
15665;SDS011;20725;51.196;3.510;2022-10-31T07:38:33;14.50;;;12.13;;
15665;SDS011;20725;51.196;3.510;2022-10-31T07:41:01;14.23;;;11.70;;
15665;SDS011;20725;51.196;3.510;2022-10-31T07:43:32;14.20;;;11.77;;
15665;SDS011;20725;51.196;3.510;2022-10-31T07:46:30;11.50;;;10.27;;
15665;SDS011;20725;51.196;3.510;2022-10-31T07:49:11;16.40;;;11.50;;
15665;SDS011;20725;51.196;3.510;2022-10-31T07:51:50;12.23;;;10.20;;
15665;SDS011;20725;51.196;3.510;2022-10-31T07:54:36;9.57;;;8.57;;
15665;SDS011;20725;51.196;3.510;2022-10-31T07:57:26;10.27;;;9.27;;
15665;SDS011;20725;51.196;3.510;2022-10-31T08:00:16;13.67;;;10.70;;
15665;SDS011;20725;51.196;3.510;2022-10-31T08:02:46;10.33;;;9.23;;
15665;SDS011;20725;51.196;3.510;2022-10-31T08:05:18;12.10;;;10.40;;
15665;SDS011;20725;51.196;3.510;2022-10-31T08:07:53;11.77;;;9.47;;
15665;SDS011;20725;51.196;3.510;2022-10-31T08:10:27;13.67;;;8.83;;
15665;SDS011;20725;51.196;3.510;2022-10-31T08:13:06;11.77;;;9.20;;
15665;SDS011;20725;51.196;3.510;2022-10-31T08:15:59;10.63;;;9.03;;
15665;SDS011;20725;51.196;3.510;2022-10-31T08:18:43;12.83;;;10.13;;
15665;SDS011;20725;51.196;3.510;2022-10-31T08:21:12;14.53;;;10.20;;
15665;SDS011;20725;51.196;3.510;2022-10-31T08:24:16;12.90;;;9.70;;
15665;SDS011;20725;51.196;3.510;2022-10-31T08:26:55;14.10;;;8.83;;
15665;SDS011;20725;51.196;3.510;2022-10-31T08:29:38;12.77;;;9.13;;
15665;SDS011;20725;51.196;3.510;2022-10-31T08:32:26;9.03;;;8.13;;
15665;SDS011;20725;51.196;3.510;2022-10-31T08:35:01;9.53;;;8.57;;
15665;SDS011;20725;51.196;3.510;2022-10-31T08:38:02;8.93;;;8.00;;
15665;SDS011;20725;51.196;3.510;2022-10-31T08:41:04;7.97;;;6.97;;
15665;SDS011;20725;51.196;3.510;2022-10-31T08:43:51;8.40;;;7.20;;
15665;SDS011;20725;51.196;3.510;2022-10-31T08:46:37;7.00;;;6.30;;
15665;SDS011;20725;51.196;3.510;2022-10-31T08:52:44;7.47;;;6.77;;
15665;SDS011;20725;51.196;3.510;2022-10-31T08:55:32;8.67;;;7.00;;
15665;SDS011;20725;51.196;3.510;2022-10-31T08:58:20;10.60;;;7.53;;
15665;SDS011;20725;51.196;3.510;2022-10-31T09:00:58;11.40;;;7.53;;
15665;SDS011;20725;51.196;3.510;2022-10-31T09:03:40;9.90;;;7.80;;
15665;SDS011;20725;51.196;3.510;2022-10-31T09:06:30;10.03;;;8.17;;
15665;SDS011;20725;51.196;3.510;2022-10-31T09:09:55;10.83;;;8.90;;
15665;SDS011;20725;51.196;3.510;2022-10-31T09:12:43;13.37;;;7.93;;
15665;SDS011;20725;51.196;3.510;2022-10-31T09:15:35;16.03;;;9.23;;
15665;SDS011;20725;51.196;3.510;2022-10-31T09:18:12;9.57;;;8.67;;
15665;SDS011;20725;51.196;3.510;2022-10-31T09:20:59;13.33;;;9.73;;
15665;SDS011;20725;51.196;3.510;2022-10-31T09:24:28;13.63;;;9.33;;
15665;SDS011;20725;51.196;3.510;2022-10-31T09:30:07;11.47;;;9.80;;
15665;SDS011;20725;51.196;3.510;2022-10-31T09:33:02;10.37;;;9.37;;
15665;SDS011;20725;51.196;3.510;2022-10-31T09:35:39;16.20;;;10.27;;
15665;SDS011;20725;51.196;3.510;2022-10-31T09:41:33;13.13;;;10.47;;
15665;SDS011;20725;51.196;3.510;2022-10-31T09:47:43;15.27;;;10.37;;
15665;SDS011;20725;51.196;3.510;2022-10-31T09:53:43;10.93;;;9.77;;
15665;SDS011;20725;51.196;3.510;2022-10-31T09:56:30;10.80;;;9.03;;
15665;SDS011;20725;51.196;3.510;2022-10-31T09:59:12;11.90;;;9.00;;
15665;SDS011;20725;51.196;3.510;2022-10-31T10:01:59;11.07;;;8.93;;
15665;SDS011;20725;51.196;3.510;2022-10-31T10:08:01;14.17;;;9.10;;
15665;SDS011;20725;51.196;3.510;2022-10-31T10:10:49;13.87;;;9.40;;
15665;SDS011;20725;51.196;3.510;2022-10-31T10:16:45;11.20;;;8.60;;
15665;SDS011;20725;51.196;3.510;2022-10-31T10:22:45;11.03;;;9.17;;
15665;SDS011;20725;51.196;3.510;2022-10-31T10:25:33;11.77;;;8.90;;
15665;SDS011;20725;51.196;3.510;2022-10-31T10:28:38;12.30;;;9.10;;
15665;SDS011;20725;51.196;3.510;2022-10-31T10:31:37;12.83;;;9.10;;
15665;SDS011;20725;51.196;3.510;2022-10-31T10:40:55;11.90;;;8.87;;
15665;SDS011;20725;51.196;3.510;2022-10-31T10:49:48;14.47;;;8.90;;
15665;SDS011;20725;51.196;3.510;2022-10-31T10:57:16;15.33;;;9.70;;
15665;SDS011;20725;51.196;3.510;2022-10-31T11:08:22;10.40;;;9.40;;
15665;SDS011;20725;51.196;3.510;2022-10-31T11:11:47;17.00;;;10.13;;
15665;SDS011;20725;51.196;3.510;2022-10-31T11:17:07;17.07;;;9.90;;
15665;SDS011;20725;51.196;3.510;2022-10-31T11:20:23;11.00;;;8.67;;
15665;SDS011;20725;51.196;3.510;2022-10-31T11:26:22;10.13;;;7.40;;
15665;SDS011;20725;51.196;3.510;2022-10-31T11:29:00;13.13;;;8.03;;
15665;SDS011;20725;51.196;3.510;2022-10-31T11:31:51;8.77;;;7.07;;
15665;SDS011;20725;51.196;3.510;2022-10-31T11:35:08;7.97;;;7.20;;
15665;SDS011;20725;51.196;3.510;2022-10-31T11:41:28;9.43;;;8.53;;
15665;SDS011;20725;51.196;3.510;2022-10-31T11:50:54;9.17;;;7.37;;
15665;SDS011;20725;51.196;3.510;2022-10-31T11:53:57;12.30;;;7.37;;
15665;SDS011;20725;51.196;3.510;2022-10-31T11:59:52;7.63;;;6.80;;
15665;SDS011;20725;51.196;3.510;2022-10-31T12:03:15;12.13;;;7.03;;
15665;SDS011;20725;51.196;3.510;2022-10-31T12:05:51;8.67;;;6.67;;
15665;SDS011;20725;51.196;3.510;2022-10-31T12:15:32;7.90;;;6.80;;
15665;SDS011;20725;51.196;3.510;2022-10-31T12:21:27;7.33;;;6.60;;
15665;SDS011;20725;51.196;3.510;2022-10-31T12:24:41;8.27;;;6.70;;
15665;SDS011;20725;51.196;3.510;2022-10-31T12:27:49;12.93;;;7.10;;
15665;SDS011;20725;51.196;3.510;2022-10-31T12:30:58;12.77;;;7.80;;
15665;SDS011;20725;51.196;3.510;2022-10-31T12:34:27;9.83;;;7.10;;
15665;SDS011;20725;51.196;3.510;2022-10-31T12:38:29;8.17;;;7.33;;
15665;SDS011;20725;51.196;3.510;2022-10-31T12:40:46;11.63;;;7.50;;
15665;SDS011;20725;51.196;3.510;2022-10-31T12:43:40;11.70;;;8.27;;
15665;SDS011;20725;51.196;3.510;2022-10-31T12:53:23;14.33;;;8.40;;
15665;SDS011;20725;51.196;3.510;2022-10-31T12:56:10;11.37;;;8.30;;
15665;SDS011;20725;51.196;3.510;2022-10-31T12:59:33;12.80;;;8.93;;
15665;SDS011;20725;51.196;3.510;2022-10-31T13:02:32;9.97;;;7.97;;
15665;SDS011;20725;51.196;3.510;2022-10-31T13:05:29;13.50;;;9.80;;
15665;SDS011;20725;51.196;3.510;2022-10-31T13:08:07;12.07;;;9.10;;
15665;SDS011;20725;51.196;3.510;2022-10-31T13:11:09;10.87;;;9.47;;
15665;SDS011;20725;51.196;3.510;2022-10-31T13:13:47;12.93;;;9.17;;
15665;SDS011;20725;51.196;3.510;2022-10-31T13:16:44;14.20;;;9.40;;
15665;SDS011;20725;51.196;3.510;2022-10-31T13:20:12;11.20;;;9.27;;
15665;SDS011;20725;51.196;3.510;2022-10-31T13:22:45;13.40;;;9.30;;
15665;SDS011;20725;51.196;3.510;2022-10-31T13:25:44;14.03;;;8.77;;
15665;SDS011;20725;51.196;3.510;2022-10-31T13:28:35;11.27;;;9.07;;
15665;SDS011;20725;51.196;3.510;2022-10-31T13:31:56;15.93;;;9.47;;
15665;SDS011;20725;51.196;3.510;2022-10-31T13:34:40;18.10;;;10.33;;
15665;SDS011;20725;51.196;3.510;2022-10-31T13:37:26;15.83;;;9.97;;
15665;SDS011;20725;51.196;3.510;2022-10-31T13:40:33;13.50;;;9.57;;
15665;SDS011;20725;51.196;3.510;2022-10-31T13:47:18;18.33;;;9.57;;
15665;SDS011;20725;51.196;3.510;2022-10-31T13:50:02;13.60;;;9.77;;
15665;SDS011;20725;51.196;3.510;2022-10-31T13:52:37;13.37;;;9.37;;
15665;SDS011;20725;51.196;3.510;2022-10-31T14:05:53;12.33;;;8.30;;
15665;SDS011;20725;51.196;3.510;2022-10-31T14:08:22;11.37;;;9.50;;
15665;SDS011;20725;51.196;3.510;2022-10-31T14:11:07;14.67;;;9.43;;
15665;SDS011;20725;51.196;3.510;2022-10-31T14:13:50;13.50;;;8.90;;
15665;SDS011;20725;51.196;3.510;2022-10-31T14:17:27;13.53;;;10.17;;
15665;SDS011;20725;51.196;3.510;2022-10-31T14:23:35;14.17;;;10.33;;
15665;SDS011;20725;51.196;3.510;2022-10-31T14:29:02;17.27;;;10.67;;
15665;SDS011;20725;51.196;3.510;2022-10-31T14:31:52;12.73;;;9.50;;
15665;SDS011;20725;51.196;3.510;2022-10-31T14:34:26;22.53;;;11.30;;
15665;SDS011;20725;51.196;3.510;2022-10-31T14:37:18;13.83;;;10.57;;
15665;SDS011;20725;51.196;3.510;2022-10-31T14:40:06;18.13;;;10.80;;
15665;SDS011;20725;51.196;3.510;2022-10-31T14:43:15;20.07;;;10.67;;
15665;SDS011;20725;51.196;3.510;2022-10-31T14:46:02;18.33;;;11.07;;
15665;SDS011;20725;51.196;3.510;2022-10-31T14:51:46;19.37;;;12.23;;
15665;SDS011;20725;51.196;3.510;2022-10-31T14:54:19;17.97;;;11.47;;
15665;SDS011;20725;51.196;3.510;2022-10-31T15:00:53;18.33;;;11.73;;
15665;SDS011;20725;51.196;3.510;2022-10-31T15:03:42;23.67;;;13.87;;
15665;SDS011;20725;51.196;3.510;2022-10-31T15:06:38;24.40;;;13.93;;
15665;SDS011;20725;51.196;3.510;2022-10-31T15:13:17;25.77;;;14.37;;
15665;SDS011;20725;51.196;3.510;2022-10-31T15:16:25;31.23;;;15.67;;
15665;SDS011;20725;51.196;3.510;2022-10-31T15:19:10;21.77;;;14.70;;
15665;SDS011;20725;51.196;3.510;2022-10-31T15:22:12;18.93;;;13.67;;
15665;SDS011;20725;51.196;3.510;2022-10-31T15:28:28;20.83;;;14.27;;
15665;SDS011;20725;51.196;3.510;2022-10-31T15:35:08;16.43;;;12.53;;
15665;SDS011;20725;51.196;3.510;2022-10-31T15:41:05;22.43;;;13.27;;
15665;SDS011;20725;51.196;3.510;2022-10-31T15:50:55;31.23;;;13.97;;
15665;SDS011;20725;51.196;3.510;2022-10-31T15:56:48;32.17;;;15.63;;
15665;SDS011;20725;51.196;3.510;2022-10-31T15:59:41;22.77;;;15.83;;
15665;SDS011;20725;51.196;3.510;2022-10-31T16:09:30;31.13;;;20.10;;
15665;SDS011;20725;51.196;3.510;2022-10-31T16:12:37;30.27;;;20.50;;
15665;SDS011;20725;51.196;3.510;2022-10-31T16:18:54;31.13;;;20.47;;
15665;SDS011;20725;51.196;3.510;2022-10-31T16:27:33;32.47;;;20.30;;
15665;SDS011;20725;51.196;3.510;2022-10-31T16:36:01;29.10;;;18.67;;
15665;SDS011;20725;51.196;3.510;2022-10-31T16:39:03;30.43;;;18.77;;
15665;SDS011;20725;51.196;3.510;2022-10-31T16:42:02;28.07;;;18.83;;
15665;SDS011;20725;51.196;3.510;2022-10-31T16:44:49;25.67;;;18.40;;
15665;SDS011;20725;51.196;3.510;2022-10-31T16:47:18;27.13;;;16.43;;
15665;SDS011;20725;51.196;3.510;2022-10-31T16:49:48;25.93;;;16.40;;
15665;SDS011;20725;51.196;3.510;2022-10-31T16:52:24;25.90;;;16.50;;
15665;SDS011;20725;51.196;3.510;2022-10-31T16:54:58;30.30;;;15.83;;
15665;SDS011;20725;51.196;3.510;2022-10-31T16:57:29;30.07;;;15.97;;
15665;SDS011;20725;51.196;3.510;2022-10-31T17:00:09;31.33;;;16.00;;
15665;SDS011;20725;51.196;3.510;2022-10-31T17:02:55;25.40;;;15.17;;
15665;SDS011;20725;51.196;3.510;2022-10-31T17:05:24;20.57;;;14.37;;
15665;SDS011;20725;51.196;3.510;2022-10-31T17:07:54;22.03;;;15.37;;
15665;SDS011;20725;51.196;3.510;2022-10-31T17:10:27;24.37;;;15.13;;
15665;SDS011;20725;51.196;3.510;2022-10-31T17:13:01;24.27;;;15.97;;
15665;SDS011;20725;51.196;3.510;2022-10-31T17:15:34;23.57;;;16.30;;
15665;SDS011;20725;51.196;3.510;2022-10-31T17:18:08;25.60;;;14.83;;
15665;SDS011;20725;51.196;3.510;2022-10-31T17:20:58;26.13;;;16.30;;
15665;SDS011;20725;51.196;3.510;2022-10-31T17:23:28;28.60;;;16.13;;
15665;SDS011;20725;51.196;3.510;2022-10-31T17:26:00;21.97;;;15.47;;
15665;SDS011;20725;51.196;3.510;2022-10-31T17:28:37;28.23;;;17.43;;
15665;SDS011;20725;51.196;3.510;2022-10-31T17:31:09;24.13;;;18.13;;
15665;SDS011;20725;51.196;3.510;2022-10-31T17:33:47;22.83;;;16.73;;
15665;SDS011;20725;51.196;3.510;2022-10-31T17:36:16;21.77;;;15.43;;
15665;SDS011;20725;51.196;3.510;2022-10-31T17:38:45;19.03;;;15.50;;
15665;SDS011;20725;51.196;3.510;2022-10-31T17:41:12;23.97;;;14.73;;
15665;SDS011;20725;51.196;3.510;2022-10-31T17:43:43;20.70;;;14.67;;
15665;SDS011;20725;51.196;3.510;2022-10-31T17:46:18;20.27;;;14.27;;
15665;SDS011;20725;51.196;3.510;2022-10-31T17:48:47;21.83;;;14.53;;
15665;SDS011;20725;51.196;3.510;2022-10-31T17:51:17;20.20;;;13.73;;
15665;SDS011;20725;51.196;3.510;2022-10-31T17:53:57;23.23;;;13.50;;
15665;SDS011;20725;51.196;3.510;2022-10-31T17:56:36;23.87;;;12.97;;
15665;SDS011;20725;51.196;3.510;2022-10-31T17:59:08;25.53;;;13.80;;
15665;SDS011;20725;51.196;3.510;2022-10-31T18:01:49;20.50;;;13.13;;
15665;SDS011;20725;51.196;3.510;2022-10-31T18:04:16;17.80;;;12.40;;
15665;SDS011;20725;51.196;3.510;2022-10-31T18:06:45;18.57;;;11.83;;
15665;SDS011;20725;51.196;3.510;2022-10-31T18:09:22;22.23;;;12.80;;
15665;SDS011;20725;51.196;3.510;2022-10-31T18:11:56;18.17;;;11.70;;
15665;SDS011;20725;51.196;3.510;2022-10-31T18:14:24;20.37;;;12.00;;
15665;SDS011;20725;51.196;3.510;2022-10-31T18:16:53;19.97;;;11.50;;
15665;SDS011;20725;51.196;3.510;2022-10-31T18:19:23;15.53;;;11.20;;
15665;SDS011;20725;51.196;3.510;2022-10-31T18:21:50;23.67;;;11.37;;